Time;durP1;ratioP1;P1;durP2;ratioP2;P2;SDS_P1;SDS_P2;PMS_P1;PMS_P2;Temp;Humidity;BMP_temperature;BMP_pressure;BME280_temperature;BME280_humidity;BME280_pressure;Samples;Min_cycle;Max_cycle;Signal;HPM_P1;HPM_P2
2021/03/09 00:00:24;;;;;;;35.05;15.27;;;1.40;99.90;;;;;;5081286;28;20043;-65
2021/03/09 00:02:50;;;;;;;34.92;15.65;;;1.40;99.90;;;;;;5080737;28;20097;-65
2021/03/09 00:05:15;;;;;;;30.85;14.27;;;1.40;99.90;;;;;;5080357;28;21044;-65
2021/03/09 00:07:41;;;;;;;37.22;15.88;;;1.50;99.90;;;;;;5081868;28;20039;-65
2021/03/09 00:10:08;;;;;;;42.45;17.00;;;1.50;99.90;;;;;;5081722;28;20119;-65
2021/03/09 00:12:34;;;;;;;38.63;16.00;;;1.60;99.90;;;;;;5080742;28;20132;-65
2021/03/09 00:15:00;;;;;;;37.90;15.95;;;1.50;99.90;;;;;;5072861;28;20115;-65
2021/03/09 00:17:25;;;;;;;39.47;15.18;;;1.50;99.90;;;;;;5067439;28;20036;-65
2021/03/09 00:19:51;;;;;;;37.00;15.88;;;1.50;99.90;;;;;;5058965;28;20078;-65
2021/03/09 00:22:16;;;;;;;44.03;16.52;;;1.50;99.90;;;;;;5067140;28;20036;-65
2021/03/09 00:24:42;;;;;;;33.08;14.63;;;1.50;99.90;;;;;;5067384;28;20082;-65
2021/03/09 00:27:11;;;;;;;35.15;15.73;;;1.50;99.90;;;;;;5066949;28;20041;-65
2021/03/09 00:29:37;;;;;;;36.50;14.93;;;1.50;99.90;;;;;;5067729;28;20041;-64
2021/03/09 00:32:06;;;;;;;36.38;15.85;;;1.50;99.90;;;;;;5066991;28;20066;-65
2021/03/09 00:34:32;;;;;;;32.50;15.55;;;;;;;;;;5066238;28;20051;-65
2021/03/09 00:36:58;;;;;;;39.40;16.70;;;;;;;;;;5058912;28;20029;-65
2021/03/09 00:39:24;;;;;;;36.33;16.23;;;;;;;;;;5066133;28;20040;-65
2021/03/09 00:41:50;;;;;;;35.85;16.73;;;;;;;;;;5059004;28;20052;-65
2021/03/09 00:44:17;;;;;;;39.90;16.30;;;;;;;;;;5066729;28;20044;-66
2021/03/09 00:46:43;;;;;;;32.28;15.10;;;;;;;;;;5064626;28;20049;-65
2021/03/09 00:49:09;;;;;;;37.53;16.10;;;;;;;;;;5054007;28;20121;-65
2021/03/09 00:51:35;;;;;;;39.55;15.85;;;;;;;;;;5054658;28;20032;-65
2021/03/09 00:54:01;;;;;;;44.78;17.13;;;;;;;;;;5065708;28;20424;-65
2021/03/09 00:56:27;;;;;;;33.08;15.32;;;;;;;;;;5058021;28;20064;-65
2021/03/09 00:58:52;;;;;;;36.28;15.70;;;;;;;;;;5065624;28;20036;-65
2021/03/09 01:01:19;;;;;;;34.53;14.95;;;;;;;;;;5059128;28;20043;-65
2021/03/09 01:03:44;;;;;;;36.75;16.05;;;;;;;;;;5064694;28;20059;-65
2021/03/09 01:06:11;;;;;;;37.00;15.45;;;;;;;;;;5057922;28;20424;-65
2021/03/09 01:08:36;;;;;;;34.50;15.18;;;;;;;;;;5051693;28;20040;-65
2021/03/09 01:11:03;;;;;;;38.03;15.98;;;;;;;;;;5064777;28;20036;-65
2021/03/09 01:13:29;;;;;;;38.00;15.98;;;;;;;;;;5056881;28;20040;-65
2021/03/09 01:15:55;;;;;;;37.42;16.17;;;;;;;;;;5059731;28;20131;-65
2021/03/09 01:18:21;;;;;;;39.00;15.40;;;;;;;;;;5066236;28;20120;-65
2021/03/09 01:20:47;;;;;;;40.70;18.05;;;;;;;;;;5066101;28;20037;-65
2021/03/09 01:23:14;;;;;;;41.15;16.55;;;;;;;;;;5049734;28;20032;-65
2021/03/09 01:25:40;;;;;;;45.95;18.17;;;;;;;;;;5065374;28;20041;-65
2021/03/09 01:28:06;;;;;;;39.05;17.42;;;;;;;;;;5064592;28;20040;-65
2021/03/09 01:30:32;;;;;;;45.22;18.25;;;;;;;;;;5065019;28;20226;-65
2021/03/09 01:32:58;;;;;;;37.70;16.85;;;;;;;;;;5065071;28;20492;-65
2021/03/09 01:35:24;;;;;;;42.25;16.77;;;;;;;;;;5049786;28;20041;-65
2021/03/09 01:37:50;;;;;;;39.53;18.45;;;;;;;;;;5056577;28;20435;-65
2021/03/09 01:40:16;;;;;;;31.77;15.13;;;;;;;;;;5060312;28;20032;-65
2021/03/09 01:42:42;;;;;;;32.42;15.43;;;;;;;;;;5060927;28;20071;-65
2021/03/09 01:45:09;;;;;;;43.45;17.00;;;;;;;;;;5065167;28;20074;-65
2021/03/09 01:47:39;;;;;;;40.22;16.05;;;;;;;;;;5053541;28;20065;-65
2021/03/09 01:50:06;;;;;;;42.17;17.58;;;;;;;;;;5052502;28;20051;-65
2021/03/09 01:52:32;;;;;;;34.97;15.18;;;;;;;;;;5056678;28;20371;-65
2021/03/09 01:54:58;;;;;;;35.60;16.55;;;;;;;;;;5056847;28;20095;-65
2021/03/09 01:57:24;;;;;;;40.58;16.65;;;;;;;;;;5057718;28;20037;-65
2021/03/09 01:59:50;;;;;;;42.80;15.82;;;;;;;;;;5066134;28;20039;-65
2021/03/09 02:02:17;;;;;;;40.85;16.15;;;;;;;;;;5055977;28;20033;-65
2021/03/09 02:04:43;;;;;;;33.83;16.05;;;;;;;;;;5059880;28;20024;-65
2021/03/09 02:07:09;;;;;;;37.63;15.40;;;;;;;;;;5053699;28;20404;-65
2021/03/09 02:09:36;;;;;;;35.47;14.93;;;;;;;;;;5057740;28;20036;-65
2021/03/09 02:12:10;;;;;;;32.42;14.75;;;;;;;;;;5066035;28;20024;-65
2021/03/09 02:14:39;;;;;;;38.00;16.10;;;;;;;;;;5053827;28;20040;-65
2021/03/09 02:17:11;;;;;;;37.95;16.00;;;;;;;;;;5054078;28;20037;-65
2021/03/09 02:19:49;;;;;;;38.30;16.45;;;;;;;;;;5061755;28;20064;-64
2021/03/09 02:22:30;;;;;;;33.55;14.98;;;;;;;;;;5054991;28;20028;-65
2021/03/09 02:25:05;;;;;;;34.25;15.13;;;;;;;;;;5064775;28;20506;-65
2021/03/09 02:27:40;;;;;;;37.42;16.38;;;;;;;;;;5056621;28;20047;-65
2021/03/09 02:30:08;;;;;;;37.42;15.68;;;;;;;;;;5065299;28;20043;-65
2021/03/09 02:32:38;;;;;;;35.33;15.85;;;;;;;;;;5054350;28;20053;-65
2021/03/09 02:35:05;;;;;;;39.72;16.33;;;;;;;;;;5053260;28;20039;-65
2021/03/09 02:37:34;;;;;;;41.35;17.27;;;;;;;;;;5056151;28;20063;-65
2021/03/09 02:40:00;;;;;;;47.47;17.40;;;;;;;;;;5058835;28;20094;-65
2021/03/09 02:42:27;;;;;;;39.65;16.77;;;;;;;;;;5063537;28;20170;-65
2021/03/09 02:44:55;;;;;;;38.70;15.85;;;;;;;;;;5064707;28;20039;-65
2021/03/09 02:47:22;;;;;;;42.10;16.23;;;;;;;;;;5058370;28;20163;-65
2021/03/09 02:49:49;;;;;;;36.70;16.33;;;;;;;;;;5056872;28;20036;-65
2021/03/09 02:52:20;;;;;;;36.92;15.98;;;;;;;;;;5056862;28;20416;-65
2021/03/09 02:54:46;;;;;;;43.20;17.33;;;;;;;;;;5053064;28;20052;-65
2021/03/09 02:57:13;;;;;;;44.17;17.60;;;;;;;;;;5055149;28;20033;-65
2021/03/09 02:59:40;;;;;;;41.42;16.90;;;;;;;;;;5056310;28;20132;-65
2021/03/09 03:02:07;;;;;;;36.47;15.88;;;;;;;;;;5056113;28;20063;-65
2021/03/09 03:04:33;;;;;;;42.90;18.05;;;;;;;;;;5064441;28;20532;-65
2021/03/09 03:07:00;;;;;;;44.35;17.63;;;;;;;;;;5057259;28;20041;-65
2021/03/09 03:09:26;;;;;;;35.38;15.38;;;;;;;;;;5047947;28;20810;-62
2021/03/09 03:11:54;;;;;;;46.05;16.73;;;;;;;;;;5064838;28;20036;-62
2021/03/09 03:14:21;;;;;;;37.97;15.75;;;;;;;;;;5057233;28;20036;-66
2021/03/09 03:16:47;;;;;;;39.10;16.08;;;;;;;;;;5055831;28;20642;-64
2021/03/09 03:19:14;;;;;;;42.38;17.05;;;;;;;;;;5061816;28;20029;-64
2021/03/09 03:21:41;;;;;;;38.45;16.35;;;;;;;;;;5055545;28;20041;-65
2021/03/09 03:33:17;;;;;;;37.47;14.13;;;;;;;;;;5064885;28;20651;-64
2021/03/09 03:35:45;;;;;;;34.45;14.80;;;;;;;;;;5053819;28;20041;-64
2021/03/09 03:38:14;;;;;;;42.33;15.88;;;;;;;;;;5056987;28;20554;-64
2021/03/09 03:40:41;;;;;;;42.38;16.33;;;;;;;;;;5061389;28;20503;-64
2021/03/09 03:43:07;;;;;;;40.47;16.13;;;;;;;;;;5058351;28;20607;-65
2021/03/09 03:45:33;;;;;;;36.72;15.82;;;;;;;;;;5055269;28;20835;-64
2021/03/09 03:47:59;;;;;;;41.30;15.30;;;;;;;;;;5063227;28;20049;-65
2021/03/09 03:50:26;;;;;;;34.55;13.60;;;;;;;;;;5065357;28;20036;-65
2021/03/09 03:52:52;;;;;;;35.28;15.30;;;;;;;;;;5059266;28;20037;-64
2021/03/09 03:55:36;;;;;;;37.75;14.65;;;;;;;;;;5062164;28;20124;-64
2021/03/09 03:58:14;;;;;;;40.70;15.70;;;;;;;;;;5067024;28;20082;-64
2021/03/09 04:00:40;;;;;;;33.17;14.40;;;;;;;;;;5056157;28;20046;-64
2021/03/09 04:03:07;;;;;;;33.38;14.95;;;;;;;;;;5056584;28;20773;-65
2021/03/09 04:05:33;;;;;;;32.33;13.35;;;;;;;;;;5061886;28;20044;-64
2021/03/09 04:08:00;;;;;;;35.55;15.25;;;;;;;;;;5066358;28;20044;-65
2021/03/09 04:10:26;;;;;;;32.33;13.73;;;;;;;;;;5060751;28;20091;-62
2021/03/09 04:12:53;;;;;;;31.42;13.13;;;;;;;;;;5060688;28;20744;-64
2021/03/09 04:15:21;;;;;;;36.88;14.95;;;;;;;;;;5051446;28;20119;-64
2021/03/09 04:17:47;;;;;;;38.25;14.00;;;;;;;;;;5059794;28;20036;-64
2021/03/09 04:20:13;;;;;;;34.42;13.70;;;;;;;;;;5063288;28;20064;-64
2021/03/09 04:22:40;;;;;;;31.48;13.18;;;;;;;;;;5049083;28;20041;-64
2021/03/09 04:25:06;;;;;;;29.48;12.20;;;;;;;;;;5055531;28;20472;-65
2021/03/09 04:27:32;;;;;;;28.73;12.40;;;;;;;;;;5059664;28;20672;-65
2021/03/09 04:29:59;;;;;;;29.40;11.55;;;;;;;;;;5059430;28;20033;-64
2021/03/09 04:32:26;;;;;;;28.48;11.98;;;;;;;;;;5060358;28;20077;-64
2021/03/09 04:34:53;;;;;;;27.33;11.52;;;;;;;;;;5062692;28;20400;-63
2021/03/09 04:37:19;;;;;;;23.85;10.23;;;;;;;;;;5065818;28;20520;-64
2021/03/09 04:39:45;;;;;;;22.08;9.93;;;;;;;;;;5067267;28;20123;-65
2021/03/09 04:42:11;;;;;;;22.92;9.38;;;;;;;;;;5059814;28;20112;-65
2021/03/09 04:44:38;;;;;;;21.00;9.00;;;;;;;;;;5065665;28;20520;-64
2021/03/09 04:47:04;;;;;;;22.10;8.85;;;;;;;;;;5062534;28;20029;-64
2021/03/09 04:49:34;;;;;;;19.67;8.88;;;;;;;;;;5063735;28;20047;-64
2021/03/09 04:52:00;;;;;;;17.38;8.10;;;;;;;;;;5057415;28;20030;-64
2021/03/09 04:54:26;;;;;;;22.13;8.95;;;;;;;;;;5067157;28;20044;-63
2021/03/09 04:56:52;;;;;;;21.30;9.02;;;;;;;;;;5050676;28;20044;-64
2021/03/09 04:59:18;;;;;;;22.80;9.02;;;;;;;;;;5061126;28;20037;-63
2021/03/09 05:01:44;;;;;;;17.88;8.05;;;;;;;;;;5063596;28;20036;-64
2021/03/09 05:04:10;;;;;;;19.83;8.48;;;;;;;;;;5058824;28;20040;-64
2021/03/09 05:06:36;;;;;;;20.05;8.88;;;;;;;;;;5058412;28;20064;-63
2021/03/09 05:09:03;;;;;;;22.77;8.40;;;;;;;;;;5065171;28;20041;-64
2021/03/09 05:11:29;;;;;;;20.52;8.00;;;;;;;;;;5066439;28;20068;-64
2021/03/09 05:13:56;;;;;;;17.58;8.10;;;;;;;;;;5058519;28;20045;-64
2021/03/09 05:16:22;;;;;;;19.35;8.73;;;;;;;;;;5065182;28;20420;-64
2021/03/09 05:18:48;;;;;;;18.55;8.10;;;;;;;;;;5058863;28;20433;-64
2021/03/09 05:21:14;;;;;;;19.30;7.22;;;;;;;;;;5057386;28;20052;-64
2021/03/09 05:23:40;;;;;;;16.05;7.45;;;;;;;;;;5066471;28;20044;-65
2021/03/09 05:26:06;;;;;;;20.25;8.05;;;;;;;;;;5066283;28;20374;-63
2021/03/09 05:28:32;;;;;;;25.00;8.85;;;;;;;;;;5065066;28;20052;-64
2021/03/09 05:30:59;;;;;;;20.30;7.63;;;;;;;;;;5062868;28;20044;-64
2021/03/09 05:33:25;;;;;;;20.02;8.65;;;;;;;;;;5064665;28;20580;-64
2021/03/09 05:35:51;;;;;;;22.05;9.68;;;;;;;;;;5057871;28;20120;-65
2021/03/09 05:38:17;;;;;;;23.73;9.63;;;;;;;;;;5060813;28;20032;-64
2021/03/09 05:40:43;;;;;;;21.88;9.13;;;;;;;;;;5058439;28;20051;-65
2021/03/09 05:43:10;;;;;;;22.48;9.23;;;;;;;;;;5052026;28;20506;-64
2021/03/09 05:45:37;;;;;;;26.05;9.27;;;;;;;;;;5053014;28;20032;-65
2021/03/09 05:48:03;;;;;;;27.48;11.63;;;;;;;;;;5063286;28;20514;-65
2021/03/09 05:50:29;;;;;;;33.40;11.30;;;;;;;;;;5061602;28;20052;-65
2021/03/09 05:52:55;;;;;;;26.73;13.23;;;;;;;;;;5064426;28;20079;-64
2021/03/09 05:55:22;;;;;;;29.05;11.70;;;;;;;;;;5060653;28;20058;-64
2021/03/09 05:57:48;;;;;;;25.75;11.05;;;;;;;;;;5062812;28;20785;-65
2021/03/09 06:00:15;;;;;;;29.85;13.85;;;;;;;;;;5056665;28;20037;-64
2021/03/09 06:02:41;;;;;;;24.77;11.38;;;;;;;;;;5056496;28;20041;-65
2021/03/09 06:05:08;;;;;;;28.00;11.13;;;;;;;;;;5063699;28;20703;-65
2021/03/09 06:07:37;;;;;;;24.65;10.80;;;;;;;;;;5063260;28;20041;-65
2021/03/09 06:10:04;;;;;;;29.60;12.32;;;;;;;;;;5056333;28;20090;-65
2021/03/09 06:12:31;;;;;;;29.58;11.32;;;;;;;;;;5058349;28;20040;-65
2021/03/09 06:15:00;;;;;;;28.42;11.45;;;;;;;;;;5060372;28;20037;-64
2021/03/09 06:17:31;;;;;;;26.05;10.65;;;;;;;;;;5062375;28;20066;-64
2021/03/09 06:19:58;;;;;;;25.25;10.68;;;;;;;;;;5053403;28;20037;-65
2021/03/09 06:22:39;;;;;;;29.23;11.75;;;;;;;;;;5055390;28;20048;-64
2021/03/09 06:25:06;;;;;;;25.63;10.73;;;;;;;;;;5062211;28;20679;-64
2021/03/09 06:27:33;;;;;;;27.63;11.40;;;;;;;;;;5055942;28;20205;-65
2021/03/09 06:29:59;;;;;;;29.50;11.60;;;;;;;;;;5063926;28;20395;-64
2021/03/09 06:32:26;;;;;;;29.67;12.68;;;;;;;;;;5063420;28;20040;-64
2021/03/09 06:34:54;;;;;;;33.03;16.83;;;;;;;;;;5058716;22;20103;-64
2021/03/09 06:37:22;;;;;;;51.92;22.40;;;;;;;;;;5062503;28;20045;-64
2021/03/09 06:39:52;;;;;;;34.33;14.60;;;;;;;;;;5052117;28;20063;-64
2021/03/09 06:42:21;;;;;;;35.13;15.63;;;;;;;;;;5051807;28;20130;-64
2021/03/09 06:44:51;;;;;;;29.92;13.23;;;;;;;;;;5055524;28;20045;-64
2021/03/09 06:47:17;;;;;;;28.67;12.13;;;;;;;;;;5055010;28;20037;-64
2021/03/09 06:49:48;;;;;;;29.00;12.35;;;;;;;;;;5060623;28;20044;-64
2021/03/09 06:52:14;;;;;;;32.90;12.93;;;;;;;;;;5057207;28;20076;-63
2021/03/09 06:54:44;;;;;;;33.03;13.63;;;;;;;;;;5052938;28;20405;-64
2021/03/09 06:57:10;;;;;;;37.97;14.43;;;;;;;;;;5053533;28;20029;-64
2021/03/09 06:59:36;;;;;;;31.27;14.20;;;;;;;;;;5053583;28;20044;-64
2021/03/09 07:02:13;;;;;;;36.10;14.82;;;;;;;;;;5049295;28;20461;-64
2021/03/09 07:04:41;;;;;;;29.67;13.88;;;;;;;;;;5051450;28;20037;-63
2021/03/09 07:07:08;;;;;;;36.08;14.57;;;;;;;;;;5052460;28;20048;-73
2021/03/09 07:09:35;;;;;;;32.10;14.77;;;;;;;;;;5052398;28;20044;-64
2021/03/09 07:12:03;;;;;;;34.13;14.60;;;;;;;;;;5053259;28;20093;-64
2021/03/09 07:14:32;;;;;;;39.33;14.88;;;;;;;;;;5063088;28;20049;-63
2021/03/09 07:17:00;;;;;;;35.38;15.52;;;;;;;;;;5051240;28;20172;-67
2021/03/09 07:19:29;;;;;;;33.00;14.90;;;;;;;;;;5062626;28;20493;-63
2021/03/09 07:21:55;;;;;;;64.68;27.33;;;;;;;;;;5053903;28;20535;-65
2021/03/09 07:24:22;;;;;;;49.75;19.50;;;;;;;;;;5052541;28;20438;-66
2021/03/09 07:26:49;;;;;;;47.00;18.42;;;;;;;;;;5055113;28;20052;-69
2021/03/09 07:29:17;;;;;;;46.58;17.42;;;;;;;;;;5056688;28;20067;-68
2021/03/09 07:31:44;;;;;;;45.28;19.35;;;;;;;;;;5060595;28;20719;-73
2021/03/09 07:34:10;;;;;;;44.95;18.65;;;;;;;;;;5064761;28;20868;-65
2021/03/09 07:36:37;;;;;;;45.58;18.88;;;;;;;;;;5057532;28;20091;-71
2021/03/09 07:39:04;;;;;;;52.35;21.65;;;;;;;;;;5063017;28;20479;-64
2021/03/09 07:41:30;;;;;;;47.28;19.65;;;;;;;;;;5058162;28;20039;-60
2021/03/09 07:43:56;;;;;;;51.67;20.67;;;;;;;;;;5059388;28;20036;-62
2021/03/09 07:46:22;;;;;;;46.03;19.70;;;;;;;;;;5055179;28;20066;-63
2021/03/09 07:48:53;;;;;;;45.70;18.90;;;;;;;;;;5065657;28;20032;-66
2021/03/09 07:51:19;;;;;;;57.15;23.13;;;;;;;;;;5059654;28;20119;-64
2021/03/09 07:54:04;;;;;;;59.88;23.00;;;;;;;;;;5065613;28;20819;-63
2021/03/09 07:56:31;;;;;;;59.57;24.17;;;;;;;;;;5062805;28;20037;-63
2021/03/09 07:59:06;;;;;;;53.90;23.00;;;;;;;;;;5055486;28;20047;-63
2021/03/09 08:01:47;;;;;;;61.90;24.55;;;;;;;;;;5055821;28;20064;-62
2021/03/09 08:04:14;;;;;;;60.50;24.65;;;;;;;;;;5059186;28;20556;-64
2021/03/09 08:06:44;;;;;;;60.53;24.48;;;;;;;;;;5057104;28;20041;-64
2021/03/09 08:09:28;;;;;;;53.88;23.30;;;;;;;;;;5062520;28;20089;-64
2021/03/09 08:11:54;;;;;;;58.15;24.35;;;;;;;;;;5070674;28;20094;-63
2021/03/09 08:14:21;;;;;;;57.58;24.95;;;;;;;;;;5067022;28;20568;-64
2021/03/09 08:16:48;;;;;;;61.17;25.95;;;;;;;;;;5053344;28;20037;-66
2021/03/09 08:19:34;;;;;;;58.67;24.75;;;;;;;;;;5070358;28;20040;-64
2021/03/09 08:22:01;;;;;;;68.75;28.25;;;;;;;;;;5057697;28;20075;-63
2021/03/09 08:24:42;;;;;;;63.28;26.77;;;;;;;;;;5056838;28;20055;-64
2021/03/09 08:27:36;;;;;;;62.95;26.27;;;;;;;;;;5067028;28;20068;-63
2021/03/09 08:30:08;;;;;;;59.22;26.50;;;;;;;;;;5072515;28;20044;-63
2021/03/09 08:32:35;;;;;;;61.25;26.35;;;;;;;;;;5070340;28;20041;-64
2021/03/09 08:35:13;;;;;;;58.25;25.65;;;;;;;;;;5071091;28;20043;-64
2021/03/09 08:37:41;;;;;;;80.05;33.95;;;;;;;;;;5070548;28;20085;-63
2021/03/09 08:40:07;;;;;;;60.15;26.38;;;;;;;;;;5072784;28;20035;-64
2021/03/09 08:42:52;;;;;;;51.47;23.30;;;;;;;;;;5070791;28;20036;-63
2021/03/09 08:45:35;;;;;;;52.17;21.85;;;;;;;;;;5073771;28;20136;-64
2021/03/09 08:48:01;;;;;;;57.15;24.27;;;;;;;;;;5073606;28;20074;-64
2021/03/09 08:50:37;;;;;;;45.03;20.80;;;;;;;;;;5072980;28;20101;-64
2021/03/09 08:53:03;;;;;;;49.53;22.80;;;;;;;;;;5068897;28;20037;-65
2021/03/09 08:55:29;;;;;;;57.22;23.92;;;;;;;;;;5060047;28;20051;-64
2021/03/09 08:57:55;;;;;;;52.33;22.65;;;;;;;;;;5056203;28;20083;-64
2021/03/09 09:00:22;;;;;;;50.42;22.25;;;;;;;;;;5056532;28;20672;-64
2021/03/09 09:02:49;;;;;;;50.47;23.33;;;;;;;;;;5056407;28;20135;-64
2021/03/09 09:05:15;;;;;;;53.10;22.60;;;;;;;;;;5066129;28;20123;-63
2021/03/09 09:07:45;;;;;;;43.95;20.17;;;;;;;;;;5050146;28;20041;-64
2021/03/09 09:10:15;;;;;;;49.22;21.75;;;;;;;;;;5061676;28;20045;-62
2021/03/09 09:12:45;;;;;;;48.35;22.40;;;;;;;;;;5059309;28;20045;-62
2021/03/09 09:15:20;;;;;;;51.17;21.23;;;;;;;;;;5052746;28;20068;-62
2021/03/09 09:17:57;;;;;;;51.03;20.92;;;;;;;;;;5068385;28;20063;-63
2021/03/09 09:20:23;;;;;;;45.45;20.70;;;;;;;;;;5061989;28;20044;-62
2021/03/09 09:22:53;;;;;;;53.25;22.23;;;;;;;;;;5051195;28;20136;-62
2021/03/09 09:25:19;;;;;;;46.47;21.17;;;;;;;;;;5054082;28;20070;-63
2021/03/09 09:27:50;;;;;;;49.33;22.92;;;;;;;;;;5056166;28;20047;-64
2021/03/09 09:30:21;;;;;;;48.50;21.30;;;;;;;;;;5055325;28;20111;-63
2021/03/09 09:32:51;;;;;;;44.97;20.00;;;;;;;;;;5049866;28;20111;-65
2021/03/09 09:35:17;;;;;;;46.97;21.35;;;;;;;;;;5062057;28;20040;-64
2021/03/09 09:38:03;;;;;;;49.75;23.05;;;;;;;;;;5054783;28;20044;-63
2021/03/09 09:40:34;;;;;;;53.75;25.27;;;;;;;;;;5056411;28;20488;-64
2021/03/09 09:43:01;;;;;;;48.22;22.10;;;;;;;;;;5053262;28;20040;-63
2021/03/09 09:45:28;;;;;;;51.53;23.30;;;;;;;;;;5052512;28;20879;-63
2021/03/09 09:47:54;;;;;;;60.95;24.30;;;;;;;;;;5064794;28;20029;-65
2021/03/09 09:50:21;;;;;;;48.28;21.45;;;;;;;;;;5063490;28;20115;-63
2021/03/09 09:52:50;;;;;;;47.10;21.42;;;;;;;;;;5059295;28;20064;-65
2021/03/09 09:55:19;;;;;;;50.58;23.52;;;;;;;;;;5052221;28;20045;-81
2021/03/09 09:57:57;;;;;;;52.40;23.70;;;;;;;;;;5067555;28;20064;-79
2021/03/09 10:00:24;;;;;;;50.83;22.48;;;;;;;;;;5043997;28;20506;-80
2021/03/09 10:03:13;;;;;;;49.70;23.42;;;;;;;;;;5046158;28;20401;-80
2021/03/09 10:05:40;;;;;;;48.88;21.58;;;;;;;;;;5044562;28;20056;-80
2021/03/09 10:08:07;;;;;;;43.38;20.25;;;;;;;;;;5060062;28;20395;-81
2021/03/09 10:10:34;;;;;;;45.45;20.52;;;;;;;;;;5051862;28;20102;-80
2021/03/09 10:13:00;;;;;;;46.05;20.17;;;;;;;;;;5062103;28;20101;-79
2021/03/09 10:15:48;;;;;;;44.40;20.27;;;;;;;;;;5046993;28;20115;-80
2021/03/09 10:18:21;;;;;;;40.65;19.58;;;;;;;;;;5055824;28;20144;-80
2021/03/09 10:20:57;;;;;;;41.25;18.80;;;;;;;;;;5061687;28;20485;-80
2021/03/09 10:23:23;;;;;;;34.95;14.25;;;;;;;;;;5043404;28;20467;-79
2021/03/09 10:25:55;;;;;;;36.47;17.08;;;;;;;;;;5059335;28;20047;-80
2021/03/09 10:28:26;;;;;;;42.15;19.35;;;;;;;;;;5053414;28;20423;-79
2021/03/09 10:30:52;;;;;;;39.17;18.33;;;;;;;;;;5065882;28;20029;-79
2021/03/09 10:33:18;;;;;;;37.38;17.48;;;;;;;;;;5043234;28;20064;-79
2021/03/09 10:36:03;;;;;;;36.40;18.50;;;;;;;;;;5062134;28;20044;-77
2021/03/09 10:38:31;;;;;;;37.55;16.80;;;;;;;;;;5051975;28;20044;-81
2021/03/09 10:40:57;;;;;;;32.17;15.60;;;;;;;;;;5049518;28;20061;-82
2021/03/09 10:43:39;;;;;;;34.90;16.27;;;;;;;;;;5046749;28;20045;-79
2021/03/09 10:46:06;;;;;;;35.08;15.68;;;;;;;;;;5061843;28;20044;-80
2021/03/09 10:48:32;;;;;;;33.10;16.90;;;;;;;;;;5058458;28;20037;-77
2021/03/09 10:50:58;;;;;;;30.83;14.95;;;;;;;;;;5048901;28;20037;-78
2021/03/09 10:53:24;;;;;;;30.55;15.15;;;;;;;;;;5045928;28;20131;-78
2021/03/09 10:55:51;;;;;;;33.20;15.93;;;;;;;;;;5046264;28;20489;-77
2021/03/09 10:58:17;;;;;;;28.85;14.07;;;;;;;;;;5046448;28;20649;-77
2021/03/09 11:00:43;;;;;;;26.35;13.70;;;;;;;;;;5046215;28;20115;-77
2021/03/09 11:03:09;;;;;;;26.67;13.65;;;;;;;;;;5057439;28;20065;-78
2021/03/09 11:05:35;;;;;;;26.55;13.25;;;;;;;;;;5052416;28;20041;-81
2021/03/09 11:08:02;;;;;;;26.55;12.85;;;;;;;;;;5043314;28;20037;-77
2021/03/09 11:10:28;;;;;;;30.25;14.48;;;;;;;;;;5045453;28;20116;-77
2021/03/09 11:12:54;;;;;;;32.22;16.88;;;;;;;;;;5068183;28;20043;-78
2021/03/09 11:15:20;;;;;;;27.23;14.40;;;;;;;;;;5046271;28;20040;-78
2021/03/09 11:17:47;;;;;;;30.15;14.07;;;;;;;;;;5037387;28;20041;-79
2021/03/09 11:20:14;;;;;;;27.10;13.43;;;;;;;;;;5043108;28;20048;-79
2021/03/09 11:22:40;;;;;;;26.65;13.50;;;;;;;;;;5042413;28;20074;-79
2021/03/09 11:25:07;;;;;;;24.58;13.25;;;;;;;;;;5046582;28;20102;-78
2021/03/09 11:27:33;;;;;;;25.55;12.95;;;;;;;;;;5056041;28;20075;-80
2021/03/09 11:30:00;;;;;;;25.95;12.48;;;;;;;;;;5052334;28;20048;-78
2021/03/09 11:32:28;;;;;;;28.77;13.98;;;;;;;;;;5044336;28;20087;-77
2021/03/09 11:34:54;;;;;;;23.20;12.48;;;;;;;;;;5044476;28;20506;-79
2021/03/09 11:37:20;;;;;;;21.60;11.57;;;;;;;;;;5050420;28;20079;-79
2021/03/09 11:39:47;;;;;;;25.27;12.50;;;;;;;;;;5051070;28;20048;-76
2021/03/09 11:42:13;;;;;;;22.08;11.55;;;;;;;;;;5047691;28;20082;-77
2021/03/09 11:44:39;;;;;;;21.15;10.98;;;;;;;;;;5043514;28;20048;-77
2021/03/09 11:47:05;;;;;;;24.48;11.10;;;;;;;;;;5036783;28;20050;-77
2021/03/09 11:49:32;;;;;;;22.60;11.10;;;;;;;;;;5038556;28;20490;-77
2021/03/09 11:51:58;;;;;;;19.70;10.95;;;;;;;;;;5055471;28;20052;-77
2021/03/09 11:54:24;;;;;;;21.63;10.98;;;;;;;;;;5048241;28;20058;-77
2021/03/09 11:56:50;;;;;;;25.13;11.38;;;;;;;;;;5045239;28;20118;-79
2021/03/09 11:59:16;;;;;;;19.25;10.02;;;;;;;;;;5042200;28;20043;-78
2021/03/09 12:01:42;;;;;;;18.98;9.35;;;;;;;;;;5038997;28;20061;-79
2021/03/09 12:04:08;;;;;;;19.05;9.93;;;;;;;;;;5044867;28;20041;-78
2021/03/09 12:06:35;;;;;;;18.65;9.45;;;;;;;;;;5044474;28;20049;-77
2021/03/09 12:09:02;;;;;;;22.08;10.32;;;;;;;;;;5045457;28;20568;-78
2021/03/09 12:11:28;;;;;;;16.75;9.60;;;;;;;;;;5039771;28;20045;-77
2021/03/09 12:13:54;;;;;;;17.00;9.38;;;;;;;;;;5063790;28;20040;-78
2021/03/09 12:16:20;;;;;;;21.73;11.38;;;;;;;;;;5052675;28;20040;-77
2021/03/09 12:18:47;;;;;;;18.85;9.95;;;;;;;;;;5057895;28;20033;-77
2021/03/09 12:21:17;;;;;;;17.60;9.73;;;;;;;;;;5045293;28;20037;-77
2021/03/09 12:23:43;;;;;;;19.60;10.00;;;;;;;;;;5060513;28;20115;-78
2021/03/09 12:26:10;;;;;;;17.55;9.90;;;;;;;;;;5039327;28;20046;-77
2021/03/09 12:28:36;;;;;;;16.45;8.88;;;;;;;;;;5046017;28;20037;-78
2021/03/09 12:31:03;;;;;;;22.20;11.40;;;;;;;;;;5058079;28;20123;-78
2021/03/09 12:33:29;;;;;;;20.10;10.65;;;;;;;;;;5048280;28;20493;-77
2021/03/09 12:35:55;;;;;;;18.48;10.15;;;;;;;;;;5058537;28;20065;-77
2021/03/09 12:38:22;;;;;;;16.58;8.77;;;;;;;;;;5037782;28;20595;-77
2021/03/09 12:40:48;;;;;;;18.75;9.73;;;;;;;;;;5054896;28;20435;-77
2021/03/09 12:43:14;;;;;;;18.77;10.07;;;;;;;;;;5038253;28;20069;-77
2021/03/09 12:45:41;;;;;;;29.05;16.33;;;;;;;;;;5047488;28;20048;-77
2021/03/09 12:48:07;;;;;;;18.70;9.43;;;;;;;;;;5058738;28;20043;-79
2021/03/09 12:50:34;;;;;;;18.58;9.48;;;;;;;;;;5055747;28;20048;-77
2021/03/09 12:53:02;;;;;;;17.55;8.48;;;;;;;;;;5048535;28;20041;-77
2021/03/09 12:55:41;;;;;;;23.35;11.85;;;;;;;;;;5049541;28;20048;-77
2021/03/09 12:58:08;;;;;;;20.27;10.63;;;;;;;;;;5052192;28;20037;-77
2021/03/09 13:00:35;;;;;;;16.65;8.18;;;;;;;;;;5052026;28;20052;-77
2021/03/09 13:03:01;;;;;;;16.33;8.85;;;;;;;;;;5064772;28;20604;-78
2021/03/09 13:05:28;;;;;;;14.68;8.30;;;;;;;;;;5061557;28;20489;-77
2021/03/09 13:07:54;;;;;;;12.10;6.60;;;;;;;;;;5031588;28;20037;-77
2021/03/09 13:10:21;;;;;;;13.90;7.60;;;;;;;;;;5062997;28;20080;-77
2021/03/09 13:12:47;;;;;;;11.15;6.97;;;;;;;;;;5069935;28;20036;-77
2021/03/09 13:15:14;;;;;;;12.00;6.35;;;;;;;;;;5063216;28;20029;-78
2021/03/09 13:17:41;;;;;;;12.88;6.80;;;;;;;;;;5058008;28;20738;-78
2021/03/09 13:20:12;;;;;;;10.02;5.50;;;;;;;;;;5047886;28;20496;-78
2021/03/09 13:22:39;;;;;;;11.23;5.95;;;;;;;;;;5048006;28;20072;-77
2021/03/09 13:25:06;;;;;;;11.07;6.68;;;;;;;;;;5048240;28;20037;-78
2021/03/09 13:27:32;;;;;;;10.25;5.93;;;;;;;;;;5052956;28;20688;-76
2021/03/09 13:29:59;;;;;;;13.48;7.68;;;;;;;;;;5048600;28;20040;-77
2021/03/09 13:32:25;;;;;;;10.77;6.20;;;;;;;;;;5064284;28;20048;-77
2021/03/09 13:34:51;;;;;;;9.65;5.63;;;;;;;;;;5065057;28;20045;-76
2021/03/09 13:37:18;;;;;;;12.93;5.68;;;;;;;;;;5047039;28;20028;-78
2021/03/09 13:39:45;;;;;;;7.78;4.78;;;;;;;;;;5045156;28;20502;-78
2021/03/09 13:42:12;;;;;;;39.97;21.35;;;;;;;;;;5063996;28;20029;-78
2021/03/09 13:44:38;;;;;;;10.30;6.05;;;;;;;;;;5048426;28;20128;-78
2021/03/09 13:47:05;;;;;;;9.73;5.63;;;;;;;;;;5037891;28;20072;-77
2021/03/09 13:49:31;;;;;;;9.57;5.32;;;;;;;;;;5047474;28;20744;-78
2021/03/09 13:51:58;;;;;;;9.23;4.80;;;;;;;;;;5045464;28;20059;-77
2021/03/09 13:54:24;;;;;;;7.70;4.80;;;;;;;;;;5063844;28;20084;-78
2021/03/09 13:56:50;;;;;;;7.47;4.10;;;;;;;;;;5055516;28;20048;-78
2021/03/09 13:59:16;;;;;;;7.70;4.50;;;;;;;;;;5044703;28;20044;-77
2021/03/09 14:01:43;;;;;;;6.55;4.25;;;;;;;;;;5042716;28;20092;-79
2021/03/09 14:04:10;;;;;;;8.05;5.10;;;;;;;;;;5063175;28;20037;-77
2021/03/09 14:06:36;;;;;;;8.00;4.93;;;;;;;;;;5047999;28;20048;-78
2021/03/09 14:09:02;;;;;;;8.50;4.50;;;;;;;;;;5063553;28;20071;-77
2021/03/09 14:11:28;;;;;;;7.93;4.85;;;;;;;;;;5048940;28;20119;-78
2021/03/09 14:13:55;;;;;;;8.10;5.13;;;;;;;;;;5051259;28;20115;-76
2021/03/09 14:16:21;;;;;;;9.63;5.35;;;;;;;;;;5055454;28;20044;-78
2021/03/09 14:18:48;;;;;;;9.82;5.55;;;;;;;;;;5053565;28;20056;-77
2021/03/09 14:21:14;;;;;;;11.70;6.32;;;;;;;;;;5054968;28;20037;-76
2021/03/09 14:23:40;;;;;;;9.18;5.68;;;;;;;;;;5070591;28;20049;-78
2021/03/09 14:26:07;;;;;;;9.77;6.43;;;;;;;;;;5056422;28;20151;-78
2021/03/09 14:28:34;;;;;;;14.18;6.95;;;;;;;;;;5049378;28;20036;-77